createdAt,value
2019-02-20T00:00:16.673Z,66.53
2019-02-20T00:02:44.187Z,73.30
2019-02-20T00:05:11.582Z,74.93
2019-02-20T00:07:39.136Z,80.83
2019-02-20T00:10:06.735Z,82.10
2019-02-20T00:12:34.068Z,87.87
2019-02-20T00:15:01.427Z,91.13
2019-02-20T00:17:28.749Z,93.47
2019-02-20T00:19:56.195Z,90.20
2019-02-20T00:22:23.652Z,98.97
2019-02-20T00:24:51.054Z,93.87
2019-02-20T00:27:18.472Z,106.70
2019-02-20T00:29:45.860Z,97.50
2019-02-20T00:32:13.312Z,100.97
2019-02-20T00:34:40.636Z,98.37
2019-02-20T00:37:08.173Z,96.47
2019-02-20T00:39:35.641Z,94.53
2019-02-20T00:42:03.000Z,89.00
2019-02-20T00:44:37.560Z,93.13
2019-02-20T00:47:15.463Z,88.13
2019-02-20T00:49:45.283Z,81.27
2019-02-20T00:52:14.016Z,73.53
2019-02-20T00:54:41.439Z,74.43
2019-02-20T00:57:08.996Z,70.67
2019-02-20T00:59:36.405Z,65.23
2019-02-20T01:02:03.839Z,67.67
2019-02-20T01:04:31.220Z,65.50
2019-02-20T01:06:58.609Z,63.53
2019-02-20T01:09:26.196Z,59.23
2019-02-20T01:11:53.765Z,62.07
2019-02-20T01:14:21.208Z,61.63
2019-02-20T01:16:48.620Z,54.37
2019-02-20T01:19:16.001Z,53.37
2019-02-20T01:21:43.331Z,58.00
2019-02-20T01:24:10.785Z,58.83
2019-02-20T01:26:38.239Z,59.43
2019-02-20T01:29:05.581Z,59.63
2019-02-20T01:31:32.976Z,60.13
2019-02-20T01:34:00.497Z,57.23
2019-02-20T01:36:28.078Z,60.50
2019-02-20T01:38:55.393Z,58.37
2019-02-20T01:41:22.994Z,62.43
2019-02-20T01:43:50.496Z,60.27
2019-02-20T01:46:17.902Z,59.53
2019-02-20T01:48:45.332Z,57.57
2019-02-20T01:51:13.175Z,61.87
2019-02-20T01:53:40.757Z,55.10
2019-02-20T01:56:08.182Z,59.23
2019-02-20T01:58:35.598Z,63.30
2019-02-20T02:01:03.011Z,64.67
2019-02-20T02:03:30.446Z,57.60
2019-02-20T02:05:57.881Z,60.20
2019-02-20T02:08:25.323Z,59.37
2019-02-20T02:10:52.861Z,64.33
2019-02-20T02:13:20.372Z,62.70
2019-02-20T02:15:47.824Z,69.70
2019-02-20T02:18:15.324Z,63.43
2019-02-20T02:20:42.677Z,63.10
2019-02-20T02:23:19.425Z,69.57
2019-02-20T02:25:39.073Z,66.63
2019-02-20T02:28:06.581Z,67.53
2019-02-20T02:30:34.019Z,73.97
2019-02-20T02:33:01.488Z,71.70
2019-02-20T02:35:28.895Z,67.90
2019-02-20T02:37:56.434Z,72.73
2019-02-20T02:40:23.824Z,77.60
2019-02-20T02:42:51.327Z,69.03
2019-02-20T02:45:18.887Z,72.47
2019-02-20T02:47:46.335Z,72.63
2019-02-20T02:50:13.720Z,74.07
2019-02-20T02:52:41.127Z,72.60
2019-02-20T02:55:08.510Z,65.57
2019-02-20T02:57:35.842Z,69.83
2019-02-20T03:00:03.897Z,70.67
2019-02-20T03:02:31.255Z,89.77
2019-02-20T03:04:58.709Z,97.90
2019-02-20T03:07:26.131Z,97.67
2019-02-20T03:09:53.560Z,96.33
2019-02-20T03:12:21.121Z,100.93
2019-02-20T03:14:48.461Z,95.97
2019-02-20T03:17:15.889Z,81.77
2019-02-20T03:19:43.559Z,91.83
2019-02-20T03:22:11.010Z,74.30
2019-02-20T03:24:38.498Z,80.57
2019-02-20T03:27:06.327Z,80.87
2019-02-20T03:29:33.722Z,87.20
2019-02-20T03:32:01.120Z,80.83
2019-02-20T03:34:31.633Z,80.73
2019-02-20T03:36:59.236Z,80.03
2019-02-20T03:39:29.248Z,70.90
2019-02-20T03:42:09.803Z,66.47
2019-02-20T03:44:36.639Z,64.23
2019-02-20T03:47:05.903Z,70.20
2019-02-20T03:49:33.345Z,65.00
2019-02-20T03:52:00.810Z,56.43
2019-02-20T03:54:28.261Z,62.03
2019-02-20T03:56:56.172Z,55.93
2019-02-20T03:59:23.673Z,57.07
2019-02-20T04:01:51.091Z,58.40
2019-02-20T04:04:18.526Z,55.17
2019-02-20T04:06:45.924Z,59.80
2019-02-20T04:09:13.387Z,60.43
2019-02-20T04:11:40.804Z,54.77
2019-02-20T04:14:08.149Z,57.03
2019-02-20T04:16:35.667Z,54.67
2019-02-20T04:19:03.153Z,56.50
2019-02-20T04:21:30.666Z,58.47
2019-02-20T04:24:02.376Z,52.33
2019-02-20T04:26:27.261Z,54.70
2019-02-20T04:28:54.628Z,55.50
2019-02-20T04:31:22.026Z,54.13
2019-02-20T04:33:49.655Z,53.13
2019-02-20T04:36:17.052Z,55.23
2019-02-20T04:38:44.454Z,56.53
2019-02-20T04:41:11.926Z,58.30
2019-02-20T04:43:39.254Z,56.93
2019-02-20T04:46:06.730Z,58.33
2019-02-20T04:48:34.499Z,66.43
2019-02-20T04:51:01.930Z,60.00
2019-02-20T04:53:29.413Z,59.43
2019-02-20T04:55:56.858Z,60.13
2019-02-20T04:58:24.291Z,59.10
2019-02-20T05:00:51.733Z,56.57
2019-02-20T05:03:19.194Z,61.60
2019-02-20T05:05:46.695Z,60.63
2019-02-20T05:08:14.066Z,65.83
2019-02-20T05:10:41.448Z,65.30
2019-02-20T05:13:08.876Z,61.57
2019-02-20T05:15:36.317Z,56.67
2019-02-20T05:18:03.702Z,59.17
2019-02-20T05:20:31.127Z,58.53
2019-02-20T05:22:58.653Z,53.87
2019-02-20T05:25:26.007Z,62.70
2019-02-20T05:27:53.537Z,60.30
2019-02-20T05:30:20.955Z,60.90
2019-02-20T05:32:48.362Z,63.17
2019-02-20T05:35:15.772Z,56.23
2019-02-20T05:37:43.122Z,61.83
2019-02-20T05:40:10.697Z,58.53
2019-02-20T05:42:38.060Z,65.40
2019-02-20T05:45:06.003Z,60.03
2019-02-20T05:47:33.468Z,58.10
2019-02-20T05:50:00.931Z,60.07
2019-02-20T05:52:28.461Z,57.33
2019-02-20T05:54:55.804Z,64.97
2019-02-20T05:57:23.221Z,70.97
2019-02-20T05:59:50.621Z,63.67
2019-02-20T06:02:18.208Z,64.60
2019-02-20T06:04:45.610Z,64.70
2019-02-20T06:07:13.032Z,60.60
2019-02-20T06:09:40.365Z,65.53
2019-02-20T06:12:07.720Z,65.87
2019-02-20T06:14:35.195Z,61.13
2019-02-20T06:17:02.660Z,63.47
2019-02-20T06:19:30.092Z,71.00
2019-02-20T06:21:57.480Z,73.20
2019-02-20T06:24:24.925Z,80.13
2019-02-20T06:26:52.333Z,93.00
2019-02-20T06:29:19.740Z,87.73
2019-02-20T06:31:47.108Z,89.90
2019-02-20T06:34:14.607Z,80.30
2019-02-20T06:36:42.085Z,81.83
2019-02-20T06:39:09.577Z,77.10
2019-02-20T06:41:39.447Z,77.73
2019-02-20T06:44:06.182Z,88.87
2019-02-20T06:46:33.520Z,85.73
2019-02-20T06:49:00.989Z,101.13
2019-02-20T06:51:30.090Z,98.20
2019-02-20T06:53:57.430Z,96.73
2019-02-20T06:56:24.824Z,101.87
2019-02-20T06:58:52.547Z,96.10
2019-02-20T07:01:20.000Z,83.80
2019-02-20T07:03:47.409Z,83.37
2019-02-20T07:06:19.350Z,80.93
2019-02-20T07:08:51.166Z,79.40
2019-02-20T07:11:23.299Z,80.10
2019-02-20T07:14:01.306Z,76.20
2019-02-20T07:16:45.621Z,68.57
2019-02-20T07:19:17.182Z,64.70
2019-02-20T07:21:46.168Z,67.27
2019-02-20T07:24:24.128Z,63.03
2019-02-20T07:27:09.609Z,64.60
2019-02-20T07:29:55.319Z,60.63
2019-02-20T07:32:22.700Z,63.30
2019-02-20T07:34:50.130Z,62.80
2019-02-20T07:37:17.469Z,59.47
2019-02-20T07:39:44.815Z,55.47
2019-02-20T07:42:12.172Z,52.07
2019-02-20T07:44:39.625Z,43.73
2019-02-20T07:47:06.967Z,50.27
2019-02-20T07:49:34.397Z,51.40
2019-02-20T07:52:01.742Z,53.67
2019-02-20T07:54:29.223Z,54.00
2019-02-20T07:56:56.699Z,56.90
2019-02-20T07:59:24.059Z,64.33
2019-02-20T08:01:51.425Z,58.87
2019-02-20T08:04:18.883Z,70.00
2019-02-20T08:06:46.294Z,57.50
2019-02-20T08:09:13.815Z,66.97
2019-02-20T08:11:41.349Z,55.97
2019-02-20T08:14:08.789Z,60.63
2019-02-20T08:16:36.171Z,63.70
2019-02-20T08:19:03.731Z,62.20
2019-02-20T08:21:31.066Z,65.53
2019-02-20T08:23:58.557Z,59.07
2019-02-20T08:26:25.951Z,70.60
2019-02-20T08:28:53.339Z,69.23
2019-02-20T08:31:20.879Z,63.10
2019-02-20T08:33:48.352Z,63.37
2019-02-20T08:36:15.909Z,57.53
2019-02-20T08:38:43.381Z,52.13
2019-02-20T08:41:10.774Z,52.13
2019-02-20T08:43:38.220Z,51.83
2019-02-20T08:46:05.639Z,50.83
2019-02-20T08:48:33.151Z,54.63
2019-02-20T08:51:00.553Z,54.27
2019-02-20T08:53:27.904Z,61.63
2019-02-20T08:55:55.418Z,55.70
2019-02-20T08:58:22.847Z,70.20
2019-02-20T09:00:50.219Z,84.13
2019-02-20T09:03:17.574Z,70.83
2019-02-20T09:05:45.017Z,78.80
2019-02-20T09:08:12.546Z,55.90
2019-02-20T09:10:39.901Z,48.40
2019-02-20T09:13:07.271Z,48.60
2019-02-20T09:15:34.693Z,46.07
2019-02-20T09:18:02.103Z,39.17
2019-02-20T09:20:29.530Z,42.30
2019-02-20T09:22:56.891Z,40.00
2019-02-20T09:25:24.311Z,34.93
2019-02-20T09:27:51.828Z,37.20
2019-02-20T09:30:28.058Z,38.07
2019-02-20T09:32:48.213Z,43.63
2019-02-20T09:35:15.691Z,38.00
2019-02-20T09:37:43.092Z,35.57
2019-02-20T09:40:12.403Z,38.17
2019-02-20T09:42:40.367Z,34.70
2019-02-20T09:45:08.380Z,41.63
2019-02-20T09:47:36.915Z,43.10
2019-02-20T09:50:05.156Z,40.33
2019-02-20T09:52:32.553Z,35.83
2019-02-20T09:55:00.013Z,30.97
2019-02-20T09:57:27.523Z,27.20
2019-02-20T09:59:54.843Z,23.40
2019-02-20T10:02:22.307Z,31.57
2019-02-20T10:04:49.927Z,26.67
2019-02-20T10:07:17.271Z,29.70
2019-02-20T10:09:44.711Z,23.07
2019-02-20T10:12:12.138Z,26.43
2019-02-20T10:14:40.388Z,23.87
2019-02-20T10:17:08.070Z,27.33
2019-02-20T10:19:35.505Z,22.57
2019-02-20T10:22:02.954Z,25.37
2019-02-20T10:24:30.435Z,22.17
2019-02-20T10:27:00.563Z,25.00
2019-02-20T10:29:26.942Z,22.37
2019-02-20T10:31:54.420Z,21.70
2019-02-20T10:34:21.734Z,24.90
2019-02-20T10:36:49.123Z,27.97
2019-02-20T10:39:16.633Z,22.53
2019-02-20T10:41:44.014Z,20.00
2019-02-20T10:44:11.366Z,21.90
2019-02-20T10:46:38.874Z,27.40
2019-02-20T10:49:06.330Z,19.83
2019-02-20T10:51:33.888Z,21.77
2019-02-20T10:54:01.349Z,18.10
2019-02-20T10:56:29.110Z,16.40
2019-02-20T10:58:56.856Z,19.37
2019-02-20T11:01:24.303Z,19.83
2019-02-20T11:03:51.639Z,18.83
2019-02-20T11:06:19.097Z,21.30
2019-02-20T11:08:47.158Z,19.70
2019-02-20T11:11:14.564Z,30.33
2019-02-20T11:13:42.050Z,39.23
2019-02-20T11:16:09.478Z,35.33
2019-02-20T11:18:36.894Z,42.47
2019-02-20T11:21:04.328Z,29.33
2019-02-20T11:23:31.743Z,25.97
2019-02-20T11:25:59.170Z,29.47
2019-02-20T11:28:27.280Z,29.47
2019-02-20T11:30:54.821Z,21.97
2019-02-20T11:33:23.442Z,29.40
2019-02-20T11:35:50.892Z,29.63
2019-02-20T11:38:18.288Z,18.10
2019-02-20T11:40:45.734Z,17.00
2019-02-20T11:43:13.094Z,15.63
2019-02-20T11:45:40.421Z,20.77
2019-02-20T11:48:07.940Z,15.43
2019-02-20T11:50:35.349Z,14.97
2019-02-20T11:53:02.789Z,18.07
2019-02-20T11:55:30.332Z,17.60
2019-02-20T11:58:00.642Z,14.13
2019-02-20T12:00:26.716Z,12.63
2019-02-20T12:02:54.169Z,14.37
2019-02-20T12:05:23.308Z,10.60
2019-02-20T12:07:50.719Z,12.70
2019-02-20T12:10:19.002Z,11.97
2019-02-20T12:12:46.349Z,11.70
2019-02-20T12:15:13.888Z,13.57
2019-02-20T12:17:41.364Z,21.17
2019-02-20T12:20:08.927Z,25.67
2019-02-20T12:22:36.324Z,22.10
2019-02-20T12:25:04.415Z,14.60
2019-02-20T12:27:33.071Z,9.60
2019-02-20T12:30:00.735Z,8.13
2019-02-20T12:32:28.201Z,9.60
2019-02-20T12:34:55.614Z,9.67
2019-02-20T12:37:26.511Z,11.97
2019-02-20T12:39:53.906Z,9.33
2019-02-20T12:42:21.302Z,9.47
2019-02-20T12:44:48.808Z,10.30
2019-02-20T12:47:16.229Z,20.23
2019-02-20T12:49:43.713Z,17.57
2019-02-20T12:52:11.178Z,31.33
2019-02-20T12:54:39.869Z,40.07
2019-02-20T12:57:07.324Z,18.07
2019-02-20T12:59:34.633Z,25.53
2019-02-20T13:02:02.030Z,14.97
2019-02-20T13:04:29.535Z,14.53
2019-02-20T13:06:59.537Z,31.23
2019-02-20T13:09:26.038Z,45.57
2019-02-20T13:11:53.394Z,33.40
2019-02-20T13:14:20.746Z,20.77
2019-02-20T13:16:48.125Z,18.43
2019-02-20T13:19:15.553Z,20.23
2019-02-20T13:21:44.123Z,23.80
2019-02-20T13:24:11.646Z,20.57
2019-02-20T13:26:39.005Z,20.83
2019-02-20T13:29:06.526Z,25.63
2019-02-20T13:31:34.044Z,26.57
2019-02-20T13:34:01.526Z,15.40
2019-02-20T13:36:28.991Z,17.60
2019-02-20T13:38:56.388Z,19.13
2019-02-20T13:41:24.110Z,13.87
2019-02-20T13:43:51.581Z,19.20
2019-02-20T13:46:19.045Z,17.60
2019-02-20T13:48:46.586Z,19.17
2019-02-20T13:51:13.989Z,22.33
2019-02-20T13:53:46.405Z,18.73
2019-02-20T13:56:10.590Z,21.33
2019-02-20T13:58:37.952Z,26.17
2019-02-20T14:01:05.295Z,20.00
2019-02-20T14:03:32.902Z,23.83
2019-02-20T14:06:00.495Z,20.13
2019-02-20T14:08:28.549Z,23.90
2019-02-20T14:10:56.112Z,13.73
2019-02-20T14:13:23.858Z,21.20
2019-02-20T14:15:51.333Z,21.43
2019-02-20T14:18:18.849Z,18.47
2019-02-20T14:20:46.336Z,18.70
2019-02-20T14:23:13.894Z,14.83
2019-02-20T14:25:41.364Z,15.03
2019-02-20T14:28:08.670Z,16.07
2019-02-20T14:30:36.207Z,15.10
2019-02-20T14:33:03.780Z,22.10
2019-02-20T14:35:31.132Z,34.47
2019-02-20T14:37:58.489Z,27.47
2019-02-20T14:40:27.837Z,22.60
2019-02-20T14:42:55.409Z,16.03
2019-02-20T14:45:22.919Z,23.07
2019-02-20T14:47:50.517Z,19.13
2019-02-20T14:50:18.402Z,21.87
2019-02-20T14:52:45.965Z,19.73
2019-02-20T14:55:13.508Z,20.80
2019-02-20T14:57:41.170Z,20.27
2019-02-20T15:00:14.948Z,20.93
2019-02-20T15:02:42.395Z,23.23
2019-02-20T15:05:09.717Z,20.50
2019-02-20T15:07:38.082Z,17.60
2019-02-20T15:10:08.657Z,18.23
2019-02-20T15:12:36.077Z,23.77
2019-02-20T15:15:10.287Z,20.57
2019-02-20T15:17:33.193Z,17.37
2019-02-20T15:20:00.585Z,17.97
2019-02-20T15:22:28.381Z,22.30
2019-02-20T15:24:55.739Z,20.53
2019-02-20T15:27:28.632Z,19.40
2019-02-20T15:29:52.250Z,21.33
2019-02-20T15:32:19.685Z,16.90
2019-02-20T15:34:47.098Z,16.23
2019-02-20T15:37:14.813Z,18.27
2019-02-20T15:39:42.317Z,17.67
2019-02-20T15:42:10.104Z,25.63
2019-02-20T15:44:37.524Z,23.50
2019-02-20T15:47:04.997Z,21.97
2019-02-20T15:49:32.438Z,30.70
2019-02-20T15:51:59.867Z,19.63
2019-02-20T15:54:27.359Z,18.97
2019-02-20T15:56:54.719Z,20.73
2019-02-20T15:59:22.246Z,28.00
2019-02-20T16:01:49.747Z,20.43
2019-02-20T16:04:17.195Z,18.20
2019-02-20T16:06:44.668Z,16.57
2019-02-20T16:09:12.117Z,15.37
2019-02-20T16:11:39.682Z,19.60
2019-02-20T16:14:07.219Z,25.33
2019-02-20T16:16:34.720Z,27.63
2019-02-20T16:19:02.592Z,37.07
2019-02-20T16:21:30.032Z,30.60
2019-02-20T16:23:57.533Z,32.40
2019-02-20T16:26:25.013Z,32.70
2019-02-20T16:28:52.474Z,42.20
2019-02-20T16:31:19.963Z,46.77
2019-02-20T16:33:47.479Z,48.10
2019-02-20T16:36:15.012Z,59.97
2019-02-20T16:38:42.470Z,59.77
2019-02-20T16:41:09.930Z,65.97
2019-02-20T16:43:37.432Z,57.43
2019-02-20T16:46:04.812Z,60.77
2019-02-20T16:48:32.238Z,49.57
2019-02-20T16:51:00.924Z,49.47
2019-02-20T16:53:28.404Z,48.60
2019-02-20T16:55:56.390Z,47.77
2019-02-20T16:58:23.861Z,40.03
2019-02-20T17:00:52.136Z,42.17
2019-02-20T17:03:19.540Z,45.07
2019-02-20T17:05:48.521Z,45.07
2019-02-20T17:08:16.197Z,45.60
2019-02-20T17:10:43.555Z,51.40
2019-02-20T17:13:11.246Z,62.73
2019-02-20T17:15:38.703Z,63.70
2019-02-20T17:18:06.249Z,68.07
2019-02-20T17:20:33.628Z,61.93
2019-02-20T17:23:01.485Z,62.67
2019-02-20T17:25:28.966Z,62.73
2019-02-20T17:28:05.262Z,64.83
2019-02-20T17:30:25.438Z,66.93
2019-02-20T17:32:52.829Z,59.70
2019-02-20T17:35:20.308Z,54.37
2019-02-20T17:37:47.916Z,57.20
2019-02-20T17:40:15.365Z,54.47
2019-02-20T17:42:43.009Z,55.70
2019-02-20T17:45:14.512Z,51.23
2019-02-20T17:47:42.426Z,43.27
2019-02-20T17:50:11.250Z,44.40
2019-02-20T17:52:38.641Z,38.93
2019-02-20T17:55:07.239Z,39.97
2019-02-20T17:57:34.722Z,39.80
2019-02-20T18:00:02.201Z,39.40
2019-02-20T18:02:29.558Z,41.97
2019-02-20T18:04:56.884Z,40.23
2019-02-20T18:07:24.317Z,42.67
2019-02-20T18:09:51.782Z,35.17
2019-02-20T18:12:19.242Z,40.23
2019-02-20T18:14:46.722Z,45.90
2019-02-20T18:17:16.251Z,45.40
2019-02-20T18:19:43.655Z,51.57
2019-02-20T18:22:11.106Z,47.93
2019-02-20T18:24:38.505Z,47.30
2019-02-20T18:27:11.950Z,59.93
2019-02-20T18:29:39.457Z,57.93
2019-02-20T18:32:09.768Z,54.87
2019-02-20T18:34:37.100Z,53.87
2019-02-20T18:37:04.600Z,61.10
2019-02-20T18:39:32.043Z,51.77
2019-02-20T18:41:59.541Z,47.20
2019-02-20T18:44:26.917Z,56.27
2019-02-20T18:46:54.280Z,54.50
2019-02-20T18:49:21.755Z,58.40
2019-02-20T18:51:51.056Z,48.63
2019-02-20T18:54:23.527Z,52.80
2019-02-20T18:56:51.083Z,51.63
2019-02-20T18:59:18.470Z,53.90
2019-02-20T19:01:45.820Z,62.20
2019-02-20T19:04:13.314Z,68.00
2019-02-20T19:06:40.804Z,69.80
2019-02-20T19:09:09.881Z,74.70
2019-02-20T19:11:41.659Z,75.43
2019-02-20T19:14:13.652Z,87.63
2019-02-20T19:16:54.688Z,89.93
2019-02-20T19:19:23.688Z,89.63
2019-02-20T19:22:04.828Z,82.93
2019-02-20T19:24:53.358Z,88.50
2019-02-20T19:27:39.085Z,90.03
2019-02-20T19:30:23.433Z,89.60
2019-02-20T19:32:52.399Z,89.43
2019-02-20T19:35:28.378Z,82.03
2019-02-20T19:38:15.606Z,85.67
2019-02-20T19:40:57.087Z,88.87
2019-02-20T19:43:27.699Z,93.40
2019-02-20T19:46:06.102Z,97.53
2019-02-20T19:48:35.210Z,89.27
2019-02-20T19:51:16.139Z,86.27
2019-02-20T19:54:00.304Z,91.53
2019-02-20T19:56:46.143Z,86.23
2019-02-20T19:59:24.415Z,100.37
2019-02-20T20:02:10.535Z,95.93
2019-02-20T20:04:42.690Z,101.43
2019-02-20T20:07:14.565Z,106.67
2019-02-20T20:09:43.697Z,110.00
2019-02-20T20:12:29.520Z,125.27
2019-02-20T20:15:04.361Z,113.77
2019-02-20T20:17:39.427Z,119.50
2019-02-20T20:20:11.207Z,110.07
2019-02-20T20:23:00.426Z,118.13
2019-02-20T20:25:29.335Z,131.10
2019-02-20T20:27:58.430Z,121.63
2019-02-20T20:30:30.498Z,122.73
2019-02-20T20:33:05.364Z,131.50
2019-02-20T20:35:34.497Z,116.47
2019-02-20T20:38:05.711Z,109.17
2019-02-20T20:40:37.469Z,113.03
2019-02-20T20:43:12.165Z,103.83
2019-02-20T20:45:41.203Z,115.77
2019-02-20T20:48:13.281Z,115.17
2019-02-20T20:51:00.301Z,100.73
2019-02-20T20:53:29.275Z,108.07
2019-02-20T20:56:16.745Z,112.60
2019-02-20T20:58:51.751Z,116.10
2019-02-20T21:01:26.791Z,113.80
2019-02-20T21:04:14.212Z,108.73
2019-02-20T21:06:49.264Z,105.10
2019-02-20T21:09:18.755Z,112.23
2019-02-20T21:11:55.747Z,106.57
2019-02-20T21:14:27.726Z,105.10
2019-02-20T21:17:10.802Z,114.87
2019-02-20T21:19:39.898Z,112.07
2019-02-20T21:22:14.827Z,114.90
2019-02-20T21:24:46.587Z,119.77
2019-02-20T21:27:15.570Z,129.17
2019-02-20T21:30:01.012Z,125.00
2019-02-20T21:32:35.994Z,116.90
2019-02-20T21:35:05.021Z,113.50
2019-02-20T21:37:33.977Z,115.27
2019-02-20T21:40:19.972Z,122.07
2019-02-20T21:42:56.141Z,120.17
2019-02-20T21:45:27.891Z,129.67
2019-02-20T21:48:02.871Z,123.30
2019-02-20T21:50:34.877Z,114.47
2019-02-20T21:53:03.980Z,118.20
2019-02-20T21:55:54.902Z,116.40
2019-02-20T21:58:33.226Z,121.10
2019-02-20T22:01:04.885Z,138.53
2019-02-20T22:03:42.574Z,134.93
2019-02-20T22:06:15.482Z,142.87
2019-02-20T22:08:44.548Z,129.73
2019-02-20T22:11:13.565Z,123.57
2019-02-20T22:13:42.648Z,117.30
2019-02-20T22:16:11.658Z,123.87
2019-02-20T22:18:55.727Z,127.60
2019-02-20T22:21:24.793Z,127.17
2019-02-20T22:23:59.857Z,125.93
2019-02-20T22:26:29.096Z,133.60
2019-02-20T22:29:07.395Z,129.13
2019-02-20T22:31:45.358Z,138.00
2019-02-20T22:34:14.476Z,144.63
2019-02-20T22:37:00.339Z,167.10
2019-02-20T22:39:29.433Z,166.13
2019-02-20T22:42:15.084Z,151.93
2019-02-20T22:45:00.486Z,142.27
2019-02-20T22:47:38.907Z,136.07
2019-02-20T22:50:11.058Z,114.93
2019-02-20T22:52:40.094Z,110.43
2019-02-20T22:55:10.414Z,103.93
2019-02-20T22:57:58.021Z,117.27
2019-02-20T23:00:50.328Z,127.87
2019-02-20T23:03:34.541Z,121.23
2019-02-20T23:06:18.993Z,120.30
2019-02-20T23:08:48.154Z,116.87
2019-02-20T23:11:33.666Z,123.20
2019-02-20T23:14:15.176Z,118.30
2019-02-20T23:16:42.682Z,128.37
2019-02-20T23:19:10.110Z,132.67
2019-02-20T23:21:37.592Z,132.43
2019-02-20T23:24:05.104Z,118.07
2019-02-20T23:26:32.642Z,123.63
2019-02-20T23:29:00.214Z,115.40
2019-02-20T23:31:27.716Z,114.40
2019-02-20T23:33:57.214Z,113.47
2019-02-20T23:36:24.728Z,102.17
2019-02-20T23:38:52.252Z,108.60
2019-02-20T23:41:19.712Z,95.27
2019-02-20T23:43:47.312Z,93.83
2019-02-20T23:46:14.710Z,101.07
2019-02-20T23:48:42.126Z,96.63
2019-02-20T23:51:09.656Z,86.23
2019-02-20T23:53:37.057Z,80.93
2019-02-20T23:56:04.414Z,88.17
2019-02-20T23:58:32.049Z,85.93
